Home > Products > Valid Products > TAF

000
FTUS42 KGSP 041740
TAFCLT
TAF
KCLT 041740Z 0418/0518 02005KT P6SM FEW060 SCT120
     FM042100 04004KT P6SM SCT070 BKN250
      TEMPO 0421/0422 4SM TSRA BKN040CB
     FM050100 05003KT P6SM BKN060
     FM050800 06004KT P6SM BKN030
     FM051600 05008KT P6SM BKN035 PROB30 0516/0518 4SM TSRA
      BKN025CB=



000
FTUS42 KGSP 041740
TAFAVL
TAF
KAVL 041740Z 0418/0518 32005KT P6SM SCT050
      TEMPO 0422/0502 4SM TSRA BKN040CB
     FM050300 VRB03KT P6SM SCT060 PROB30 0503/0507 4SM TSRA BKN040CB
     FM050700 00000KT 5SM BR SCT070
     FM051100 00000KT 4SM BR BKN030
     FM051400 07004KT 6SM HZ VCSH BKN035=



000
FTUS42 KGSP 041740
TAFGSP
TAF
KGSP 041740Z 0418/0518 33005KT P6SM FEW060
     FM042000 05005KT P6SM VCTS SCT070CB
     FM050300 05003KT P6SM SCT060 BKN250 PROB30 0503/0507 4SM TSRA
      BKN040CB
     FM050700 02004KT P6SM SCT060
     FM051400 03006KT P6SM BKN050 PROB30 0515/0518 4SM TSRA
      BKN040CB=



000
FTUS42 KGSP 041740
TAFGSP
TAF
KGSP 041740Z 0418/0518 33005KT P6SM FEW060
     FM042000 05005KT P6SM VCTS SCT070CB
     FM050300 05003KT P6SM SCT060 BKN250 PROB30 0503/0507 4SM TSRA
      BKN040CB
     FM050700 02004KT P6SM SCT060
     FM051400 03006KT P6SM BKN050 PROB30 0515/0518 4SM TSRA
      BKN040CB=



000
FTUS42 KGSP 041740
TAFCLT
TAF
KCLT 041740Z 0418/0518 02005KT P6SM FEW060 SCT120
     FM042100 04004KT P6SM SCT070 BKN250
      TEMPO 0421/0422 4SM TSRA BKN040CB
     FM050100 05003KT P6SM BKN060
     FM050800 06004KT P6SM BKN030
     FM051600 05008KT P6SM BKN035 PROB30 0516/0518 4SM TSRA
      BKN025CB=



000
FTUS42 KGSP 041740
TAFAVL
TAF
KAVL 041740Z 0418/0518 32005KT P6SM SCT050
      TEMPO 0422/0502 4SM TSRA BKN040CB
     FM050300 VRB03KT P6SM SCT060 PROB30 0503/0507 4SM TSRA BKN040CB
     FM050700 00000KT 5SM BR SCT070
     FM051100 00000KT 4SM BR BKN030
     FM051400 07004KT 6SM HZ VCSH BKN035=



000
FTUS42 KGSP 041740
TAFCLT
TAF
KCLT 041740Z 0418/0518 02005KT P6SM FEW060 SCT120
     FM042100 04004KT P6SM SCT070 BKN250
      TEMPO 0421/0422 4SM TSRA BKN040CB
     FM050100 05003KT P6SM BKN060
     FM050800 06004KT P6SM BKN030
     FM051600 05008KT P6SM BKN035 PROB30 0516/0518 4SM TSRA
      BKN025CB=



000
FTUS42 KGSP 041740
TAFAVL
TAF
KAVL 041740Z 0418/0518 32005KT P6SM SCT050
      TEMPO 0422/0502 4SM TSRA BKN040CB
     FM050300 VRB03KT P6SM SCT060 PROB30 0503/0507 4SM TSRA BKN040CB
     FM050700 00000KT 5SM BR SCT070
     FM051100 00000KT 4SM BR BKN030
     FM051400 07004KT 6SM HZ VCSH BKN035=



000
FTUS42 KGSP 041513 AAA
TAFCLT
TAF AMD
KCLT 041513Z 0415/0512 03006KT P6SM SCT060
     FM042000 03005KT P6SM SCT070 BKN250
      TEMPO 0421/0501 4SM TSRA BKN040CB
     FM050100 04008KT P6SM BKN070 PROB30 0501/0507 4SM TSRA
      BKN040CB=



000
FTUS42 KGSP 041513 AAA
TAFCLT
TAF AMD
KCLT 041513Z 0415/0512 03006KT P6SM SCT060
     FM042000 03005KT P6SM SCT070 BKN250
      TEMPO 0421/0501 4SM TSRA BKN040CB
     FM050100 04008KT P6SM BKN070 PROB30 0501/0507 4SM TSRA
      BKN040CB=



000
FTUS42 KGSP 041513 AAA
TAFCLT
TAF AMD
KCLT 041513Z 0415/0512 03006KT P6SM SCT060
     FM042000 03005KT P6SM SCT070 BKN250
      TEMPO 0421/0501 4SM TSRA BKN040CB
     FM050100 04008KT P6SM BKN070 PROB30 0501/0507 4SM TSRA
      BKN040CB=



000
FTUS42 KGSP 041513 AAA
TAFCLT
TAF AMD
KCLT 041513Z 0415/0512 03006KT P6SM SCT060
     FM042000 03005KT P6SM SCT070 BKN250
      TEMPO 0421/0501 4SM TSRA BKN040CB
     FM050100 04008KT P6SM BKN070 PROB30 0501/0507 4SM TSRA
      BKN040CB=



000
FTUS42 KGSP 041123
TAFGSP
TAF
KGSP 041123Z 0412/0512 03004KT P6SM FEW250
     FM041500 04005KT P6SM SCT070 PROB30 0422/0504 4SM TSRA BKN040CB
     FM050400 03007KT P6SM BKN070=



000
FTUS42 KGSP 041123
TAFCLT
TAF
KCLT 041123Z 0412/0512 36004KT P6SM FEW250
     FM041500 03005KT P6SM SCT060
     FM042000 03005KT P6SM BKN070 PROB30 0421/0503 4SM TSRA BKN040CB
     FM050300 04008KT P6SM BKN070 PROB30 0503/0509 4SM TSRA
      BKN040CB=



000
FTUS42 KGSP 041123
TAFAVL
TAF
KAVL 041123Z 0412/0512 34005KT P6SM FEW250
     FM041500 35008KT P6SM SCT060
     FM042100 35007KT P6SM BKN060 PROB30 0422/0504 4SM TSRA BKN040CB
     FM050400 00000KT P6SM BKN070=



000
FTUS42 KGSP 041123
TAFGSP
TAF
KGSP 041123Z 0412/0512 03004KT P6SM FEW250
     FM041500 04005KT P6SM SCT070 PROB30 0422/0504 4SM TSRA BKN040CB
     FM050400 03007KT P6SM BKN070=



000
FTUS42 KGSP 041123
TAFCLT
TAF
KCLT 041123Z 0412/0512 36004KT P6SM FEW250
     FM041500 03005KT P6SM SCT060
     FM042000 03005KT P6SM BKN070 PROB30 0421/0503 4SM TSRA BKN040CB
     FM050300 04008KT P6SM BKN070 PROB30 0503/0509 4SM TSRA
      BKN040CB=



000
FTUS42 KGSP 041123
TAFAVL
TAF
KAVL 041123Z 0412/0512 34005KT P6SM FEW250
     FM041500 35008KT P6SM SCT060
     FM042100 35007KT P6SM BKN060 PROB30 0422/0504 4SM TSRA BKN040CB
     FM050400 00000KT P6SM BKN070=



000
FTUS42 KGSP 041123
TAFCLT
TAF
KCLT 041123Z 0412/0512 36004KT P6SM FEW250
     FM041500 03005KT P6SM SCT060
     FM042000 03005KT P6SM BKN070 PROB30 0421/0503 4SM TSRA BKN040CB
     FM050300 04008KT P6SM BKN070 PROB30 0503/0509 4SM TSRA
      BKN040CB=



000
FTUS42 KGSP 041123
TAFAVL
TAF
KAVL 041123Z 0412/0512 34005KT P6SM FEW250
     FM041500 35008KT P6SM SCT060
     FM042100 35007KT P6SM BKN060 PROB30 0422/0504 4SM TSRA BKN040CB
     FM050400 00000KT P6SM BKN070=



000
FTUS42 KGSP 041123
TAFCLT
TAF
KCLT 041123Z 0412/0512 36004KT P6SM FEW250
     FM041500 03005KT P6SM SCT060
     FM042000 03005KT P6SM BKN070 PROB30 0421/0503 4SM TSRA BKN040CB
     FM050300 04008KT P6SM BKN070 PROB30 0503/0509 4SM TSRA
      BKN040CB=



000
FTUS42 KGSP 041123
TAFAVL
TAF
KAVL 041123Z 0412/0512 34005KT P6SM FEW250
     FM041500 35008KT P6SM SCT060
     FM042100 35007KT P6SM BKN060 PROB30 0422/0504 4SM TSRA BKN040CB
     FM050400 00000KT P6SM BKN070=



000
FTUS42 KGSP 040859 AAA
TAFCLT
TAF AMD
KCLT 040859Z 0409/0506 36003KT P6SM FEW250
     FM041500 03005KT P6SM SCT060
     FM042000 05005KT P6SM BKN070 PROB30 0420/0502 4SM TSRA
      BKN040CB=



000
FTUS42 KGSP 040859 AAA
TAFCLT
TAF AMD
KCLT 040859Z 0409/0506 36003KT P6SM FEW250
     FM041500 03005KT P6SM SCT060
     FM042000 05005KT P6SM BKN070 PROB30 0420/0502 4SM TSRA
      BKN040CB=



000
FTUS42 KGSP 040859 AAA
TAFCLT
TAF AMD
KCLT 040859Z 0409/0506 36003KT P6SM FEW250
     FM041500 03005KT P6SM SCT060
     FM042000 05005KT P6SM BKN070 PROB30 0420/0502 4SM TSRA
      BKN040CB=



000
FTUS42 KGSP 040859 AAA
TAFCLT
TAF AMD
KCLT 040859Z 0409/0506 36003KT P6SM FEW250
     FM041500 03005KT P6SM SCT060
     FM042000 05005KT P6SM BKN070 PROB30 0420/0502 4SM TSRA
      BKN040CB=



000
FTUS42 KGSP 040535
TAFAVL
TAF
KAVL 040535Z 0406/0506 00000KT P6SM FEW250
     FM041000 00000KT 5SM BR FEW005
     FM041300 34004KT P6SM FEW030
     FM041800 35005KT P6SM SCT060 PROB30 0418/0422 4SM TSRA BKN040CB
     FM042200 36005KT P6SM BKN060 PROB30 0422/0504 4SM TSRA
      BKN040CB=



000
FTUS42 KGSP 040535
TAFCLT
TAF
KCLT 040535Z 0406/0506 36004KT P6SM FEW250
     FM041500 03005KT P6SM SCT060
     FM042000 05005KT P6SM BKN070 PROB30 0420/0502 4SM TSRA
      BKN040CB=



000
FTUS42 KGSP 040535
TAFGSP
TAF
KGSP 040535Z 0406/0506 01004KT P6SM FEW250
     FM041500 03005KT P6SM SCT060 PROB30 0419/0423 4SM TSRA BKN040CB
     FM042300 05005KT P6SM BKN070 PROB30 0423/0505 4SM TSRA
      BKN040CB=



000
FTUS42 KGSP 040535
TAFCLT
TAF
KCLT 040535Z 0406/0506 36004KT P6SM FEW250
     FM041500 03005KT P6SM SCT060
     FM042000 05005KT P6SM BKN070 PROB30 0420/0502 4SM TSRA
      BKN040CB=



000
FTUS42 KGSP 040535
TAFAVL
TAF
KAVL 040535Z 0406/0506 00000KT P6SM FEW250
     FM041000 00000KT 5SM BR FEW005
     FM041300 34004KT P6SM FEW030
     FM041800 35005KT P6SM SCT060 PROB30 0418/0422 4SM TSRA BKN040CB
     FM042200 36005KT P6SM BKN060 PROB30 0422/0504 4SM TSRA
      BKN040CB=



000
FTUS42 KGSP 040535
TAFCLT
TAF
KCLT 040535Z 0406/0506 36004KT P6SM FEW250
     FM041500 03005KT P6SM SCT060
     FM042000 05005KT P6SM BKN070 PROB30 0420/0502 4SM TSRA
      BKN040CB=



000
FTUS42 KGSP 040535
TAFAVL
TAF
KAVL 040535Z 0406/0506 00000KT P6SM FEW250
     FM041000 00000KT 5SM BR FEW005
     FM041300 34004KT P6SM FEW030
     FM041800 35005KT P6SM SCT060 PROB30 0418/0422 4SM TSRA BKN040CB
     FM042200 36005KT P6SM BKN060 PROB30 0422/0504 4SM TSRA
      BKN040CB=



000
FTUS42 KGSP 040244 AAA
TAFCLT
TAF AMD
KCLT 040244Z 0403/0424 01005KT P6SM FEW070
     FM040600 36003KT P6SM SCT250
     FM041400 03005KT P6SM SCT060 PROB30 0418/0424 4SM TSRA
      BKN040CB=



000
FTUS42 KGSP 040244 AAA
TAFCLT
TAF AMD
KCLT 040244Z 0403/0424 01005KT P6SM FEW070
     FM040600 36003KT P6SM SCT250
     FM041400 03005KT P6SM SCT060 PROB30 0418/0424 4SM TSRA
      BKN040CB=



000
FTUS42 KGSP 040244 AAA
TAFCLT
TAF AMD
KCLT 040244Z 0403/0424 01005KT P6SM FEW070
     FM040600 36003KT P6SM SCT250
     FM041400 03005KT P6SM SCT060 PROB30 0418/0424 4SM TSRA
      BKN040CB=



000
FTUS42 KGSP 032332
TAFGSP
TAF
KGSP 032332Z 0400/0424 36003KT P6SM FEW070
     FM040600 36003KT P6SM SCT250
     FM041400 05005KT P6SM SCT060 PROB30 0418/0424 4SM TSRA
      BKN040CB=



000
FTUS42 KGSP 032332
TAFAVL
TAF
KAVL 032332Z 0400/0424 35004KT P6SM FEW060
     FM041000 33003KT 4SM BR SCT250
     FM041300 00000KT P6SM SCT060 PROB30 0418/0424 4SM TSRA
      BKN040CB=



000
FTUS42 KGSP 032332
TAFAVL
TAF
KAVL 032332Z 0400/0424 35004KT P6SM FEW060
     FM041000 33003KT 4SM BR SCT250
     FM041300 00000KT P6SM SCT060 PROB30 0418/0424 4SM TSRA
      BKN040CB=



000
FTUS42 KGSP 032332
TAFGSP
TAF
KGSP 032332Z 0400/0424 36003KT P6SM FEW070
     FM040600 36003KT P6SM SCT250
     FM041400 05005KT P6SM SCT060 PROB30 0418/0424 4SM TSRA
      BKN040CB=



000
FTUS42 KGSP 032332
TAFCLT
TAF
KCLT 032332Z 0400/0424 01005KT P6SM FEW070
     FM040600 36003KT P6SM SCT250
     FM041400 03005KT P6SM SCT060 PROB30 0418/0424 4SM TSRA
      BKN040CB=



000
FTUS42 KGSP 032332
TAFAVL
TAF
KAVL 032332Z 0400/0424 35004KT P6SM FEW060
     FM041000 33003KT 4SM BR SCT250
     FM041300 00000KT P6SM SCT060 PROB30 0418/0424 4SM TSRA
      BKN040CB=



000
FTUS42 KGSP 032332
TAFCLT
TAF
KCLT 032332Z 0400/0424 01005KT P6SM FEW070
     FM040600 36003KT P6SM SCT250
     FM041400 03005KT P6SM SCT060 PROB30 0418/0424 4SM TSRA
      BKN040CB=



000
FTUS42 KGSP 032332
TAFCLT
TAF
KCLT 032332Z 0400/0424 01005KT P6SM FEW070
     FM040600 36003KT P6SM SCT250
     FM041400 03005KT P6SM SCT060 PROB30 0418/0424 4SM TSRA
      BKN040CB=



000
FTUS42 KGSP 032332
TAFAVL
TAF
KAVL 032332Z 0400/0424 35004KT P6SM FEW060
     FM041000 33003KT 4SM BR SCT250
     FM041300 00000KT P6SM SCT060 PROB30 0418/0424 4SM TSRA
      BKN040CB=



000
FTUS42 KGSP 032332
TAFCLT
TAF
KCLT 032332Z 0400/0424 01005KT P6SM FEW070
     FM040600 36003KT P6SM SCT250
     FM041400 03005KT P6SM SCT060 PROB30 0418/0424 4SM TSRA
      BKN040CB=



000
FTUS42 KGSP 032042 AAA
TAFCLT
TAF AMD
KCLT 032042Z 0321/0418 01005KT P6SM SCT070 BKN250
     FM040600 36003KT P6SM SCT250
     FM041400 03005KT P6SM SCT060=



000
FTUS42 KGSP 032042 AAA
TAFCLT
TAF AMD
KCLT 032042Z 0321/0418 01005KT P6SM SCT070 BKN250
     FM040600 36003KT P6SM SCT250
     FM041400 03005KT P6SM SCT060=



000
FTUS42 KGSP 032042 AAA
TAFCLT
TAF AMD
KCLT 032042Z 0321/0418 01005KT P6SM SCT070 BKN250
     FM040600 36003KT P6SM SCT250
     FM041400 03005KT P6SM SCT060=



000
FTUS42 KGSP 031733
TAFAVL
TAF
KAVL 031733Z 0318/0418 34008KT P6SM SCT060 BKN250
     FM032000 35005KT P6SM VCSH BKN060
     FM040100 34003KT P6SM SCT070
     FM041000 33003KT 4SM BR SCT070
     FM041300 00000KT P6SM SCT060=



000
FTUS42 KGSP 031733
TAFCLT
TAF
KCLT 031733Z 0318/0418 01005KT P6SM SCT070 BKN250=



000
FTUS42 KGSP 031733
TAFGSP
TAF
KGSP 031733Z 0318/0418 01008KT P6SM SCT060 BKN250
     FM040100 02003KT P6SM SCT070
     FM041400 03005KT P6SM FEW070=



000
FTUS42 KGSP 031733
TAFCLT
TAF
KCLT 031733Z 0318/0418 01005KT P6SM SCT070 BKN250=



000
FTUS42 KGSP 031733
TAFAVL
TAF
KAVL 031733Z 0318/0418 34008KT P6SM SCT060 BKN250
     FM032000 35005KT P6SM VCSH BKN060
     FM040100 34003KT P6SM SCT070
     FM041000 33003KT 4SM BR SCT070
     FM041300 00000KT P6SM SCT060=



000
FTUS42 KGSP 031733
TAFAVL
TAF
KAVL 031733Z 0318/0418 34008KT P6SM SCT060 BKN250
     FM032000 35005KT P6SM VCSH BKN060
     FM040100 34003KT P6SM SCT070
     FM041000 33003KT 4SM BR SCT070
     FM041300 00000KT P6SM SCT060=



000
FTUS42 KGSP 031733
TAFCLT
TAF
KCLT 031733Z 0318/0418 01005KT P6SM SCT070 BKN250=



000
FTUS42 KGSP 031733
TAFAVL
TAF
KAVL 031733Z 0318/0418 34008KT P6SM SCT060 BKN250
     FM032000 35005KT P6SM VCSH BKN060
     FM040100 34003KT P6SM SCT070
     FM041000 33003KT 4SM BR SCT070
     FM041300 00000KT P6SM SCT060=



000
FTUS42 KGSP 031733
TAFCLT
TAF
KCLT 031733Z 0318/0418 01005KT P6SM SCT070 BKN250=



000
FTUS42 KGSP 031536 AAA
TAFCLT
TAF AMD
KCLT 031536Z 0316/0412 02003KT P6SM BKN250
     FM031700 01006KT P6SM FEW060 SCT200
     FM040000 02004KT P6SM SCT070 BKN200=



000
FTUS42 KGSP 031536 AAA
TAFCLT
TAF AMD
KCLT 031536Z 0316/0412 02003KT P6SM BKN250
     FM031700 01006KT P6SM FEW060 SCT200
     FM040000 02004KT P6SM SCT070 BKN200=



000
FTUS42 KGSP 031536 AAA
TAFCLT
TAF AMD
KCLT 031536Z 0316/0412 02003KT P6SM BKN250
     FM031700 01006KT P6SM FEW060 SCT200
     FM040000 02004KT P6SM SCT070 BKN200=



000
FTUS42 KGSP 031131
TAFCLT
TAF
KCLT 031131Z 0312/0412 01004KT P6SM SCT150
     FM031500 01006KT P6SM FEW070 SCT200
     FM040000 02004KT P6SM SCT080 BKN200=



000
FTUS42 KGSP 031131
TAFGSP
TAF
KGSP 031131Z 0312/0412 02004KT P6SM BKN150
     FM031500 02006KT P6SM FEW070 BKN200
     FM040000 01003KT P6SM SCT080 BKN250=



000
FTUS42 KGSP 031131
TAFAVL
TAF
KAVL 031131Z 0312/0412 32004KT P6SM BKN100
     FM031500 34008KT P6SM SCT060 BKN120
     FM040100 34004KT P6SM FEW080 BKN200
     FM040900 34003KT 3SM BR FEW010 SCT150=



000
FTUS42 KGSP 031131
TAFCLT
TAF
KCLT 031131Z 0312/0412 01004KT P6SM SCT150
     FM031500 01006KT P6SM FEW070 SCT200
     FM040000 02004KT P6SM SCT080 BKN200=



000
FTUS42 KGSP 031131
TAFAVL
TAF
KAVL 031131Z 0312/0412 32004KT P6SM BKN100
     FM031500 34008KT P6SM SCT060 BKN120
     FM040100 34004KT P6SM FEW080 BKN200
     FM040900 34003KT 3SM BR FEW010 SCT150=



000
FTUS42 KGSP 031006 AAA
TAFAVL
TAF AMD
KAVL 031006Z 0310/0406 32003KT P6SM BKN100
      TEMPO 0310/0313 6SM BR
     FM031400 35007KT P6SM SCT060 BKN150=



000
FTUS42 KGSP 031006 AAA
TAFAVL
TAF AMD
KAVL 031006Z 0310/0406 32003KT P6SM BKN100
      TEMPO 0310/0313 6SM BR
     FM031400 35007KT P6SM SCT060 BKN150=



000
FTUS42 KGSP 030851 AAA
TAFCLT
TAF AMD
KCLT 030851Z 0309/0406 02003KT P6SM FEW080 BKN150
     FM031500 36006KT P6SM SCT060 BKN150=



000
FTUS42 KGSP 030851 AAA
TAFCLT
TAF AMD
KCLT 030851Z 0309/0406 02003KT P6SM FEW080 BKN150
     FM031500 36006KT P6SM SCT060 BKN150=



000
FTUS42 KGSP 030536
TAFCLT
TAF
KCLT 030536Z 0306/0406 02003KT P6SM SCT060 BKN100
     FM031500 36005KT P6SM SCT060 BKN150=



000
FTUS42 KGSP 030536
TAFAVL
TAF
KAVL 030536Z 0306/0406 33003KT P6SM BKN120
      TEMPO 0310/0313 5SM BR
     FM031400 35007KT P6SM SCT060 BKN150=



000
FTUS42 KGSP 030536
TAFGSP
TAF
KGSP 030536Z 0306/0406 00000KT P6SM SCT060 BKN120
     FM031500 02005KT P6SM SCT070 BKN150
     FM040000 34003KT P6SM SCT100=



000
FTUS42 KGSP 030536
TAFCLT
TAF
KCLT 030536Z 0306/0406 02003KT P6SM SCT060 BKN100
     FM031500 36005KT P6SM SCT060 BKN150=



000
FTUS42 KGSP 030536
TAFGSP
TAF
KGSP 030536Z 0306/0406 00000KT P6SM SCT060 BKN120
     FM031500 02005KT P6SM SCT070 BKN150
     FM040000 34003KT P6SM SCT100=



000
FTUS42 KGSP 030536
TAFAVL
TAF
KAVL 030536Z 0306/0406 33003KT P6SM BKN120
      TEMPO 0310/0313 5SM BR
     FM031400 35007KT P6SM SCT060 BKN150=



000
FTUS42 KGSP 030536
TAFCLT
TAF
KCLT 030536Z 0306/0406 02003KT P6SM SCT060 BKN100
     FM031500 36005KT P6SM SCT060 BKN150=



000
FTUS42 KGSP 030536
TAFAVL
TAF
KAVL 030536Z 0306/0406 33003KT P6SM BKN120
      TEMPO 0310/0313 5SM BR
     FM031400 35007KT P6SM SCT060 BKN150=



000
FTUS42 KGSP 030117 AAA
TAFCLT
TAF AMD
KCLT 030117Z 0301/0324 22005KT P6SM VCSH SCT060 SCT120 BKN250
     FM030300 00000KT P6SM SCT060 BKN250
     FM031700 35004KT P6SM SCT090=



000
FTUS42 KGSP 030117 AAA
TAFCLT
TAF AMD
KCLT 030117Z 0301/0324 22005KT P6SM VCSH SCT060 SCT120 BKN250
     FM030300 00000KT P6SM SCT060 BKN250
     FM031700 35004KT P6SM SCT090=



000
FTUS42 KGSP 030117 AAA
TAFCLT
TAF AMD
KCLT 030117Z 0301/0324 22005KT P6SM VCSH SCT060 SCT120 BKN250
     FM030300 00000KT P6SM SCT060 BKN250
     FM031700 35004KT P6SM SCT090=



000
FTUS42 KGSP 030117 AAA
TAFCLT
TAF AMD
KCLT 030117Z 0301/0324 22005KT P6SM VCSH SCT060 SCT120 BKN250
     FM030300 00000KT P6SM SCT060 BKN250
     FM031700 35004KT P6SM SCT090=



000
FTUS42 KGSP 022323
TAFCLT
TAF
KCLT 022323Z 0300/0324 00000KT P6SM SCT060 BKN250
     FM031700 35004KT P6SM SCT090=



000
FTUS42 KGSP 022323
TAFAVL
TAF
KAVL 022323Z 0300/0324 VRB03KT P6SM BKN070
      TEMPO 0310/0312 5SM BR SCT004=



000
FTUS42 KGSP 022323
TAFCLT
TAF
KCLT 022323Z 0300/0324 00000KT P6SM SCT060 BKN250
     FM031700 35004KT P6SM SCT090=



000
FTUS42 KGSP 022323
TAFGSP
TAF
KGSP 022323Z 0300/0324 22005KT P6SM FEW050 BKN250
     FM031500 02003KT P6SM BKN200
     FM031700 00000KT P6SM SCT050 BKN200=



000
FTUS42 KGSP 022323
TAFAVL
TAF
KAVL 022323Z 0300/0324 VRB03KT P6SM BKN070
      TEMPO 0310/0312 5SM BR SCT004=



000
FTUS42 KGSP 022323
TAFCLT
TAF
KCLT 022323Z 0300/0324 00000KT P6SM SCT060 BKN250
     FM031700 35004KT P6SM SCT090=



000
FTUS42 KGSP 022323
TAFAVL
TAF
KAVL 022323Z 0300/0324 VRB03KT P6SM BKN070
      TEMPO 0310/0312 5SM BR SCT004=



000
FTUS42 KGSP 022323
TAFGSP
TAF
KGSP 022323Z 0300/0324 22005KT P6SM FEW050 BKN250
     FM031500 02003KT P6SM BKN200
     FM031700 00000KT P6SM SCT050 BKN200=



000
FTUS42 KGSP 022057 AAA
TAFCLT
TAF AMD
KCLT 022057Z 0221/0318 24005KT P6SM SCT060 SCT250
     FM022230 26003KT P6SM VCSH SCT060 SCT250
     FM030000 34003KT P6SM BKN060
     FM030800 36003KT P6SM SCT060=



000
FTUS42 KGSP 022057 AAA
TAFCLT
TAF AMD
KCLT 022057Z 0221/0318 24005KT P6SM SCT060 SCT250
     FM022230 26003KT P6SM VCSH SCT060 SCT250
     FM030000 34003KT P6SM BKN060
     FM030800 36003KT P6SM SCT060=



000
FTUS42 KGSP 022050 AAA
TAFAVL
TAF AMD
KAVL 022050Z 0221/0318 VRB04KT P6SM VCSH BKN060
      TEMPO 0221/0222 VRB15KT 4SM SHRA BKN035 OVC060
     FM030500 00000KT P6SM SCT050
     FM031400 33005KT P6SM SCT050=



000
FTUS42 KGSP 021731
TAFCLT
TAF
KCLT 021731Z 0218/0318 26003KT P6SM BKN060
     FM030000 34003KT P6SM BKN060
     FM030800 36003KT P6SM SCT060=



000
FTUS42 KGSP 021731
TAFCLT
TAF
KCLT 021731Z 0218/0318 26003KT P6SM BKN060
     FM030000 34003KT P6SM BKN060
     FM030800 36003KT P6SM SCT060=



000
FTUS42 KGSP 021731
TAFGSP
TAF
KGSP 021731Z 0218/0318 21003KT P6SM SCT060
     FM030000 VRB03KT P6SM BKN060
     FM031400 02003KT P6SM SCT060=



000
FTUS42 KGSP 021731
TAFAVL
TAF
KAVL 021731Z 0218/0318 32005KT P6SM BKN045
     FM030500 00000KT P6SM SCT050
     FM031400 33005KT P6SM SCT050=



000
FTUS42 KGSP 021731
TAFGSP
TAF
KGSP 021731Z 0218/0318 21003KT P6SM SCT060
     FM030000 VRB03KT P6SM BKN060
     FM031400 02003KT P6SM SCT060=



000
FTUS42 KGSP 021731
TAFAVL
TAF
KAVL 021731Z 0218/0318 32005KT P6SM BKN045
     FM030500 00000KT P6SM SCT050
     FM031400 33005KT P6SM SCT050=



000
FTUS42 KGSP 021731
TAFAVL
TAF
KAVL 021731Z 0218/0318 32005KT P6SM BKN045
     FM030500 00000KT P6SM SCT050
     FM031400 33005KT P6SM SCT050=



000
FTUS42 KGSP 021731
TAFCLT
TAF
KCLT 021731Z 0218/0318 26003KT P6SM BKN060
     FM030000 34003KT P6SM BKN060
     FM030800 36003KT P6SM SCT060=



000
FTUS42 KGSP 021731
TAFAVL
TAF
KAVL 021731Z 0218/0318 32005KT P6SM BKN045
     FM030500 00000KT P6SM SCT050
     FM031400 33005KT P6SM SCT050=



000
FTUS42 KGSP 021731
TAFCLT
TAF
KCLT 021731Z 0218/0318 26003KT P6SM BKN060
     FM030000 34003KT P6SM BKN060
     FM030800 36003KT P6SM SCT060=



000
FTUS42 KGSP 021447 AAA
TAFCLT
TAF AMD
KCLT 021447Z 0215/0312 24003KT P6SM SCT050
     FM021900 26003KT P6SM BKN060
     FM030000 34003KT P6SM SCT070=



000
FTUS42 KGSP 021447 AAA
TAFCLT
TAF AMD
KCLT 021447Z 0215/0312 24003KT P6SM SCT050
     FM021900 26003KT P6SM BKN060
     FM030000 34003KT P6SM SCT070=



000
FTUS42 KGSP 021227 AAA
TAFAVL
TAF AMD
KAVL 021227Z 0212/0312 00000KT P6SM FEW005 BKN100
      TEMPO 0212/0213 BKN005
     FM021300 33003KT P6SM FEW040 SCT070
     FM021800 33005KT P6SM BKN045
     FM030100 34003KT P6SM SCT060=



000
FTUS42 KGSP 021227 AAA
TAFAVL
TAF AMD
KAVL 021227Z 0212/0312 00000KT P6SM FEW005 BKN100
      TEMPO 0212/0213 BKN005
     FM021300 33003KT P6SM FEW040 SCT070
     FM021800 33005KT P6SM BKN045
     FM030100 34003KT P6SM SCT060=



000
FTUS42 KGSP 021227 AAA
TAFAVL
TAF AMD
KAVL 021227Z 0212/0312 00000KT P6SM FEW005 BKN100
      TEMPO 0212/0213 BKN005
     FM021300 33003KT P6SM FEW040 SCT070
     FM021800 33005KT P6SM BKN045
     FM030100 34003KT P6SM SCT060=



000
FTUS42 KGSP 021128
TAFCLT
TAF
KCLT 021128Z 0212/0312 00000KT P6SM SCT100 BKN250
     FM021500 24003KT P6SM SCT050
     FM022200 26003KT P6SM BKN060
     FM030300 34003KT P6SM SCT070=



000
FTUS42 KGSP 021128
TAFAVL
TAF
KAVL 021128Z 0212/0312 00000KT P6SM FEW005 BKN100
     FM021300 33003KT P6SM FEW040 SCT070
     FM021800 33005KT P6SM BKN045
     FM030100 34003KT P6SM SCT060=



000
FTUS42 KGSP 021128
TAFCLT
TAF
KCLT 021128Z 0212/0312 00000KT P6SM SCT100 BKN250
     FM021500 24003KT P6SM SCT050
     FM022200 26003KT P6SM BKN060
     FM030300 34003KT P6SM SCT070=



000
FTUS42 KGSP 021128
TAFAVL
TAF
KAVL 021128Z 0212/0312 00000KT P6SM FEW005 BKN100
     FM021300 33003KT P6SM FEW040 SCT070
     FM021800 33005KT P6SM BKN045
     FM030100 34003KT P6SM SCT060=



000
FTUS42 KGSP 021128
TAFCLT
TAF
KCLT 021128Z 0212/0312 00000KT P6SM SCT100 BKN250
     FM021500 24003KT P6SM SCT050
     FM022200 26003KT P6SM BKN060
     FM030300 34003KT P6SM SCT070=



000
FTUS42 KGSP 021128
TAFGSP
TAF
KGSP 021128Z 0212/0312 00000KT P6SM SCT100 BKN250
     FM021500 25003KT P6SM SCT045
     FM022100 21005KT P6SM BKN060
     FM030100 03003KT P6SM SCT060=



000
FTUS42 KGSP 021128
TAFAVL
TAF
KAVL 021128Z 0212/0312 00000KT P6SM FEW005 BKN100
     FM021300 33003KT P6SM FEW040 SCT070
     FM021800 33005KT P6SM BKN045
     FM030100 34003KT P6SM SCT060=



000
FTUS42 KGSP 021128
TAFGSP
TAF
KGSP 021128Z 0212/0312 00000KT P6SM SCT100 BKN250
     FM021500 25003KT P6SM SCT045
     FM022100 21005KT P6SM BKN060
     FM030100 03003KT P6SM SCT060=



000
FTUS42 KGSP 021128
TAFAVL
TAF
KAVL 021128Z 0212/0312 00000KT P6SM FEW005 BKN100
     FM021300 33003KT P6SM FEW040 SCT070
     FM021800 33005KT P6SM BKN045
     FM030100 34003KT P6SM SCT060=



000
FTUS42 KGSP 021128
TAFCLT
TAF
KCLT 021128Z 0212/0312 00000KT P6SM SCT100 BKN250
     FM021500 24003KT P6SM SCT050
     FM022200 26003KT P6SM BKN060
     FM030300 34003KT P6SM SCT070=



000
FTUS42 KGSP 020945 AAA
TAFAVL
TAF AMD
KAVL 020945Z 0210/0306 00000KT P6SM FEW005 BKN100
      TEMPO 0211/0212 3SM BR OVC005
     FM021300 33003KT P6SM FEW040 SCT070
     FM021800 33005KT P6SM BKN045=



000
FTUS42 KGSP 020945 AAA
TAFAVL
TAF AMD
KAVL 020945Z 0210/0306 00000KT P6SM FEW005 BKN100
      TEMPO 0211/0212 3SM BR OVC005
     FM021300 33003KT P6SM FEW040 SCT070
     FM021800 33005KT P6SM BKN045=



000
FTUS42 KGSP 020945 AAA
TAFAVL
TAF AMD
KAVL 020945Z 0210/0306 00000KT P6SM FEW005 BKN100
      TEMPO 0211/0212 3SM BR OVC005
     FM021300 33003KT P6SM FEW040 SCT070
     FM021800 33005KT P6SM BKN045=



000
FTUS42 KGSP 020859 AAA
TAFCLT
TAF AMD
KCLT 020859Z 0209/0306 00000KT P6SM BKN250
     FM021500 24003KT P6SM SCT050
     FM022200 26003KT P6SM BKN060
     FM030300 34003KT P6SM SCT070=



000
FTUS42 KGSP 020859 AAA
TAFCLT
TAF AMD
KCLT 020859Z 0209/0306 00000KT P6SM BKN250
     FM021500 24003KT P6SM SCT050
     FM022200 26003KT P6SM BKN060
     FM030300 34003KT P6SM SCT070=



000
FTUS42 KGSP 020535
TAFGSP
TAF
KGSP 020535Z 0206/0306 00000KT P6SM SCT250
     FM021500 25003KT P6SM SCT045
     FM022100 21005KT P6SM BKN060
     FM030100 00000KT P6SM BKN070=



000
FTUS42 KGSP 020535
TAFCLT
TAF
KCLT 020535Z 0206/0306 00000KT P6SM SCT250
     FM021500 24003KT P6SM SCT050
     FM022200 26003KT P6SM BKN060
     FM030300 34003KT P6SM SCT070=



000
FTUS42 KGSP 020535
TAFAVL
TAF
KAVL 020535Z 0206/0306 00000KT P6SM SCT080 BKN250
     FM020900 00000KT 4SM BR FEW011 BKN080
      TEMPO 0211/0212 2SM BR OVC011
     FM021300 33003KT P6SM FEW040 SCT070
     FM021800 33005KT P6SM BKN045=



000
FTUS42 KGSP 012335
TAFCLT
TAF
KCLT 012335Z 0200/0224 00000KT P6SM FEW060
     FM021600 25004KT P6SM SCT060
     FM022000 25005KT P6SM BKN060=



000
FTUS42 KGSP 012335
TAFAVL
TAF
KAVL 012335Z 0200/0224 19003KT P6SM SCT050
     FM020600 00000KT P6SM SCT250
     FM020800 00000KT 5SM BR BKN012
      TEMPO 0210/0212 1SM BR BKN003
     FM021400 34003KT P6SM SCT050
     FM022000 34006KT P6SM BKN050 PROB30 0220/0224 4SM TSRA
      BKN040CB=



000
FTUS42 KGSP 012335
TAFCLT
TAF
KCLT 012335Z 0200/0224 00000KT P6SM FEW060
     FM021600 25004KT P6SM SCT060
     FM022000 25005KT P6SM BKN060=



000
FTUS42 KGSP 012335
TAFGSP
TAF
KGSP 012335Z 0200/0224 22004KT P6SM SCT060
     FM020200 00000KT P6SM FEW060
     FM021600 22004KT P6SM SCT060
     FM022100 23004KT P6SM BKN060=



000
FTUS42 KGSP 012335
TAFAVL
TAF
KAVL 012335Z 0200/0224 19003KT P6SM SCT050
     FM020600 00000KT P6SM SCT250
     FM020800 00000KT 5SM BR BKN012
      TEMPO 0210/0212 1SM BR BKN003
     FM021400 34003KT P6SM SCT050
     FM022000 34006KT P6SM BKN050 PROB30 0220/0224 4SM TSRA
      BKN040CB=



000
FTUS42 KGSP 012101 AAA
TAFCLT
TAF AMD
KCLT 012101Z 0121/0218 00000KT P6SM FEW060 BKN250
     FM012300 16003KT P6SM FEW060 BKN250=



    US Dept of Commerce
    National Oceanic and Atmospheric Administration
    National Weather Service
    1325 East West Highway
    Silver Spring, MD 20910
    Page Author: NWS Internet Services Team
Disclaimer
Information Quality
Credits
Glossary
Privacy Policy
Freedom of Information Act (FOIA)
About Us
Career Opportunities